EZY45KC EGGD-EKCH
Flight info
| Callsign | EZY45KC |
|---|---|
| Flight time | 1h 38m |
| Altitude | 35000 |
| Route | YORQI L607 ALHAD P72 IPRIL M197 BRAIN Q295 SOMVA DCT MAVAS DCT ANDIK N873 JUIST DCT DOSUR DCT TALSA P729 TUDLO |
| Aircraft | A320/M-SDE3FGHIRWY/LB1 |
Departure
| Time | 2026-05-04 17:04 |
|---|---|
| Airport | Bristol Airport (EGGD) |
Arrival
| Time | 2026-05-04 18:43 |
|---|---|
| Airport | Copenhagen Kastrup Airport (EKCH) |
| Time | Latitude | Longitude | Altitude | Speed | Heading |
|---|---|---|---|---|---|
| 2026-05-04 16:40 | 51.38571 | -2.70706 | 607 ft | 0 kts | 268° |
| 2026-05-04 16:56 | 51.38588 | -2.70644 | 622 ft | 3 kts | 195° |
| 2026-05-04 16:57 | 51.38600 | -2.70641 | 615 ft | 1 kts | 176° |
| 2026-05-04 16:57 | 51.38603 | -2.70642 | 613 ft | 2 kts | 176° |
| 2026-05-04 16:58 | 51.38603 | -2.70641 | 613 ft | 0 kts | 176° |
| 2026-05-04 17:00 | 51.38461 | -2.70975 | 614 ft | 24 kts | 266° |
| 2026-05-04 17:00 | 51.38437 | -2.71727 | 617 ft | 21 kts | 266° |
| 2026-05-04 17:01 | 51.38426 | -2.72130 | 620 ft | 16 kts | 268° |
| 2026-05-04 17:01 | 51.38413 | -2.72477 | 615 ft | 13 kts | 266° |
| 2026-05-04 17:02 | 51.38403 | -2.72729 | 615 ft | 10 kts | 266° |
| 2026-05-04 17:02 | 51.38394 | -2.72976 | 620 ft | 13 kts | 266° |
| 2026-05-04 17:03 | 51.38387 | -2.73164 | 615 ft | 18 kts | 267° |
| 2026-05-04 17:03 | 51.38340 | -2.73328 | 628 ft | 16 kts | 210° |
| 2026-05-04 17:03 | 51.38214 | -2.73255 | 626 ft | 3 kts | 86° |
| 2026-05-04 17:04 | 51.38242 | -2.72562 | 626 ft | 103 kts | 86° |
| 2026-05-04 17:04 | 51.38382 | -2.69237 | 1681 ft | 168 kts | 85° |
| 2026-05-04 17:05 | 51.38546 | -2.65339 | 2692 ft | 193 kts | 88° |
| 2026-05-04 17:05 | 51.38658 | -2.60511 | 3394 ft | 241 kts | 88° |
| 2026-05-04 17:06 | 51.39310 | -2.54900 | 4736 ft | 269 kts | 66° |
| 2026-05-04 17:06 | 51.40079 | -2.52149 | 5621 ft | 273 kts | 66° |
| 2026-05-04 17:07 | 51.41682 | -2.46547 | 7315 ft | 281 kts | 66° |
| 2026-05-04 17:07 | 51.42226 | -2.44658 | 7869 ft | 283 kts | 66° |
| 2026-05-04 17:07 | 51.43340 | -2.40783 | 8991 ft | 289 kts | 66° |
| 2026-05-04 17:07 | 51.44187 | -2.37825 | 9824 ft | 294 kts | 66° |
| 2026-05-04 17:08 | 51.45052 | -2.34796 | 10383 ft | 309 kts | 66° |
| 2026-05-04 17:08 | 51.46954 | -2.28121 | 11207 ft | 341 kts | 66° |
| 2026-05-04 17:08 | 51.47949 | -2.24636 | 11944 ft | 347 kts | 67° |
| 2026-05-04 17:09 | 51.48958 | -2.21096 | 12678 ft | 351 kts | 67° |
| 2026-05-04 17:09 | 51.49761 | -2.17387 | 13382 ft | 354 kts | 79° |
| 2026-05-04 17:09 | 51.50076 | -2.13467 | 14047 ft | 355 kts | 91° |
| 2026-05-04 17:10 | 51.49620 | -2.05556 | 15325 ft | 359 kts | 99° |
| 2026-05-04 17:10 | 51.48764 | -1.93452 | 17267 ft | 369 kts | 99° |
| 2026-05-04 17:11 | 51.48476 | -1.89352 | 17891 ft | 372 kts | 99° |
| 2026-05-04 17:11 | 51.48182 | -1.85210 | 18485 ft | 375 kts | 99° |
| 2026-05-04 17:11 | 51.47578 | -1.76891 | 19556 ft | 381 kts | 100° |
| 2026-05-04 17:12 | 51.47252 | -1.72590 | 20083 ft | 384 kts | 100° |
| 2026-05-04 17:12 | 51.46595 | -1.65512 | 20951 ft | 387 kts | 105° |
| 2026-05-04 17:13 | 51.44660 | -1.51305 | 22619 ft | 397 kts | 106° |
| 2026-05-04 17:14 | 51.42852 | -1.38144 | 23991 ft | 406 kts | 106° |
| 2026-05-04 17:14 | 51.42446 | -1.35199 | 24270 ft | 408 kts | 106° |
| 2026-05-04 17:14 | 51.41211 | -1.26273 | 25071 ft | 413 kts | 107° |
| 2026-05-04 17:15 | 51.40639 | -1.21776 | 25465 ft | 417 kts | 101° |
| 2026-05-04 17:15 | 51.40890 | -1.12353 | 26228 ft | 432 kts | 80° |
| 2026-05-04 17:16 | 51.43187 | -1.03347 | 26917 ft | 442 kts | 66° |
| 2026-05-04 17:16 | 51.47282 | -0.89963 | 27983 ft | 450 kts | 67° |
| 2026-05-04 17:17 | 51.48650 | -0.85453 | 28316 ft | 452 kts | 67° |
| 2026-05-04 17:17 | 51.52815 | -0.71680 | 29343 ft | 460 kts | 67° |
| 2026-05-04 17:18 | 51.54217 | -0.67047 | 29659 ft | 463 kts | 67° |
| 2026-05-04 17:18 | 51.57033 | -0.57687 | 30244 ft | 467 kts | 67° |
| 2026-05-04 17:19 | 51.59845 | -0.48286 | 30752 ft | 471 kts | 67° |
| 2026-05-04 17:19 | 51.62684 | -0.38760 | 31276 ft | 475 kts | 67° |
| 2026-05-04 17:20 | 51.65535 | -0.29163 | 32022 ft | 473 kts | 67° |
| 2026-05-04 17:20 | 51.68060 | -0.19371 | 32741 ft | 467 kts | 77° |
| 2026-05-04 17:20 | 51.68921 | -0.14404 | 33099 ft | 466 kts | 78° |
| 2026-05-04 17:21 | 51.70548 | -0.04319 | 33793 ft | 464 kts | 79° |
| 2026-05-04 17:21 | 51.72076 | 0.05785 | 34375 ft | 463 kts | 79° |
| 2026-05-04 17:22 | 51.72837 | 0.10833 | 34639 ft | 463 kts | 79° |
| 2026-05-04 17:22 | 51.73615 | 0.15937 | 34910 ft | 463 kts | 79° |
| 2026-05-04 17:23 | 51.75928 | 0.30925 | 35026 ft | 456 kts | 79° |
| 2026-05-04 17:23 | 51.76684 | 0.35855 | 35027 ft | 455 kts | 79° |
| 2026-05-04 17:24 | 51.78948 | 0.50738 | 35021 ft | 455 kts | 79° |
| 2026-05-04 17:25 | 51.82481 | 0.70435 | 35017 ft | 458 kts | 69° |
| 2026-05-04 17:26 | 51.87392 | 0.89364 | 35015 ft | 458 kts | 69° |
| 2026-05-04 17:27 | 51.93480 | 1.13193 | 35014 ft | 458 kts | 69° |
| 2026-05-04 17:28 | 51.98331 | 1.32282 | 35018 ft | 458 kts | 70° |
| 2026-05-04 17:29 | 52.05523 | 1.60997 | 35030 ft | 458 kts | 70° |
| 2026-05-04 17:31 | 52.11485 | 1.84992 | 35023 ft | 458 kts | 70° |
| 2026-05-04 17:32 | 52.17391 | 2.09049 | 35010 ft | 458 kts | 70° |
| 2026-05-04 17:33 | 52.22077 | 2.28338 | 35013 ft | 458 kts | 70° |
| 2026-05-04 17:34 | 52.26737 | 2.47700 | 35001 ft | 458 kts | 70° |
| 2026-05-04 17:35 | 52.32101 | 2.72181 | 35012 ft | 457 kts | 76° |
| 2026-05-04 17:36 | 52.33859 | 2.82170 | 35016 ft | 458 kts | 76° |
| 2026-05-04 17:36 | 52.35617 | 2.92181 | 35005 ft | 458 kts | 76° |
| 2026-05-04 17:37 | 52.37363 | 3.02194 | 35005 ft | 458 kts | 76° |
| 2026-05-04 17:37 | 52.39098 | 3.12212 | 35009 ft | 458 kts | 76° |
| 2026-05-04 17:38 | 52.40828 | 3.22238 | 35010 ft | 458 kts | 77° |
| 2026-05-04 17:38 | 52.42549 | 3.32281 | 35020 ft | 458 kts | 77° |
| 2026-05-04 17:39 | 52.45100 | 3.47309 | 35011 ft | 458 kts | 77° |
| 2026-05-04 17:39 | 52.46797 | 3.57377 | 35005 ft | 458 kts | 77° |
| 2026-05-04 17:40 | 52.48494 | 3.67460 | 35008 ft | 458 kts | 77° |
| 2026-05-04 17:40 | 52.50176 | 3.77542 | 34998 ft | 459 kts | 77° |
| 2026-05-04 17:41 | 52.51845 | 3.87643 | 35001 ft | 459 kts | 77° |
| 2026-05-04 17:41 | 52.53511 | 3.97759 | 34993 ft | 459 kts | 77° |
| 2026-05-04 17:42 | 52.55169 | 4.07887 | 34988 ft | 459 kts | 78° |
| 2026-05-04 17:42 | 52.56818 | 4.18016 | 34987 ft | 459 kts | 78° |
| 2026-05-04 17:43 | 52.58459 | 4.28165 | 34985 ft | 459 kts | 78° |
| 2026-05-04 17:43 | 52.60100 | 4.38323 | 34983 ft | 460 kts | 78° |
| 2026-05-04 17:44 | 52.61727 | 4.48502 | 34983 ft | 460 kts | 78° |
| 2026-05-04 17:44 | 52.63340 | 4.58695 | 34985 ft | 460 kts | 78° |
| 2026-05-04 17:45 | 52.64950 | 4.68912 | 34990 ft | 461 kts | 78° |
| 2026-05-04 17:45 | 52.66558 | 4.79124 | 34992 ft | 461 kts | 78° |
| 2026-05-04 17:46 | 52.68154 | 4.89368 | 34994 ft | 462 kts | 78° |
| 2026-05-04 17:46 | 52.69751 | 4.99627 | 34993 ft | 462 kts | 79° |
| 2026-05-04 17:47 | 52.71332 | 5.09912 | 34989 ft | 463 kts | 78° |
| 2026-05-04 17:47 | 52.72911 | 5.20230 | 34982 ft | 464 kts | 77° |
| 2026-05-04 17:48 | 52.75493 | 5.30013 | 34971 ft | 469 kts | 58° |
| 2026-05-04 17:48 | 52.79404 | 5.38547 | 34977 ft | 470 kts | 52° |
| 2026-05-04 17:49 | 52.83458 | 5.47134 | 34979 ft | 471 kts | 52° |
| 2026-05-04 17:49 | 52.87466 | 5.55706 | 34986 ft | 471 kts | 52° |
| 2026-05-04 17:50 | 52.91637 | 5.64079 | 34994 ft | 472 kts | 49° |
| 2026-05-04 17:50 | 52.95982 | 5.72238 | 34996 ft | 472 kts | 48° |
| 2026-05-04 17:51 | 53.00323 | 5.80424 | 35005 ft | 473 kts | 49° |
| 2026-05-04 17:51 | 53.04607 | 5.88718 | 35014 ft | 473 kts | 49° |
| 2026-05-04 17:52 | 53.08830 | 5.97012 | 35013 ft | 473 kts | 49° |
| 2026-05-04 17:52 | 53.13085 | 6.05355 | 35018 ft | 473 kts | 49° |
| 2026-05-04 17:53 | 53.17378 | 6.13748 | 35016 ft | 473 kts | 49° |
| 2026-05-04 17:53 | 53.21630 | 6.22102 | 35009 ft | 472 kts | 49° |
| 2026-05-04 17:54 | 53.25848 | 6.30417 | 35004 ft | 472 kts | 49° |
| 2026-05-04 17:54 | 53.30119 | 6.38856 | 35003 ft | 472 kts | 49° |
| 2026-05-04 17:55 | 53.34324 | 6.47205 | 35008 ft | 472 kts | 49° |
| 2026-05-04 17:55 | 53.38548 | 6.55622 | 35011 ft | 472 kts | 49° |
| 2026-05-04 17:56 | 53.42762 | 6.64055 | 35016 ft | 472 kts | 49° |
| 2026-05-04 17:56 | 53.46969 | 6.72493 | 35015 ft | 472 kts | 49° |
| 2026-05-04 17:57 | 53.51176 | 6.80949 | 35011 ft | 471 kts | 49° |
| 2026-05-04 17:57 | 53.55371 | 6.89412 | 35011 ft | 471 kts | 49° |
| 2026-05-04 17:58 | 53.59553 | 6.97890 | 35010 ft | 471 kts | 49° |
| 2026-05-04 17:58 | 53.63031 | 7.04957 | 35008 ft | 471 kts | 49° |
| 2026-05-04 17:59 | 53.67910 | 7.14902 | 35013 ft | 471 kts | 49° |
| 2026-05-04 18:00 | 53.74149 | 7.27695 | 35016 ft | 470 kts | 49° |
| 2026-05-04 18:00 | 53.78297 | 7.36222 | 35014 ft | 470 kts | 49° |
| 2026-05-04 18:01 | 53.81750 | 7.43335 | 35013 ft | 470 kts | 49° |
| 2026-05-04 18:01 | 53.85882 | 7.51901 | 35018 ft | 470 kts | 49° |
| 2026-05-04 18:02 | 53.92074 | 7.64781 | 35017 ft | 469 kts | 49° |
| 2026-05-04 18:02 | 53.96186 | 7.73374 | 35016 ft | 469 kts | 49° |
| 2026-05-04 18:03 | 54.00296 | 7.81992 | 35018 ft | 469 kts | 49° |
| 2026-05-04 18:03 | 54.04399 | 7.90618 | 35021 ft | 469 kts | 49° |
| 2026-05-04 18:04 | 54.08493 | 7.99257 | 35017 ft | 469 kts | 49° |
| 2026-05-04 18:05 | 54.14625 | 8.12242 | 35013 ft | 468 kts | 49° |
| 2026-05-04 18:05 | 54.18708 | 8.20921 | 35014 ft | 468 kts | 49° |
| 2026-05-04 18:06 | 54.24800 | 8.33953 | 35019 ft | 468 kts | 49° |
| 2026-05-04 18:06 | 54.28861 | 8.42689 | 35012 ft | 468 kts | 49° |
| 2026-05-04 18:07 | 54.32914 | 8.51417 | 35013 ft | 468 kts | 49° |
| 2026-05-04 18:07 | 54.36954 | 8.60167 | 35016 ft | 468 kts | 49° |
| 2026-05-04 18:08 | 54.40985 | 8.68926 | 35019 ft | 468 kts | 49° |
| 2026-05-04 18:08 | 54.45013 | 8.77691 | 35018 ft | 467 kts | 50° |
| 2026-05-04 18:09 | 54.53041 | 8.95265 | 35010 ft | 467 kts | 50° |
| 2026-05-04 18:10 | 54.57048 | 9.04076 | 35012 ft | 467 kts | 50° |
| 2026-05-04 18:10 | 54.61043 | 9.12903 | 35011 ft | 467 kts | 50° |
| 2026-05-04 18:11 | 54.65024 | 9.21730 | 35011 ft | 466 kts | 50° |
| 2026-05-04 18:11 | 54.69003 | 9.30578 | 35005 ft | 466 kts | 50° |
| 2026-05-04 18:12 | 54.72970 | 9.39440 | 35002 ft | 465 kts | 50° |
| 2026-05-04 18:12 | 54.76930 | 9.48315 | 35002 ft | 465 kts | 50° |
| 2026-05-04 18:13 | 54.80878 | 9.57181 | 35008 ft | 465 kts | 50° |
| 2026-05-04 18:14 | 54.86781 | 9.70532 | 35011 ft | 464 kts | 50° |
| 2026-05-04 18:14 | 54.90698 | 9.79442 | 35017 ft | 464 kts | 50° |
| 2026-05-04 18:15 | 54.98551 | 9.97342 | 33457 ft | 463 kts | 50° |
| 2026-05-04 18:15 | 55.00480 | 10.01772 | 33051 ft | 456 kts | 50° |
| 2026-05-04 18:16 | 55.02369 | 10.06116 | 32489 ft | 454 kts | 50° |
| 2026-05-04 18:16 | 55.04291 | 10.10540 | 31928 ft | 452 kts | 51° |
| 2026-05-04 18:16 | 55.06178 | 10.14892 | 31389 ft | 449 kts | 51° |
| 2026-05-04 18:17 | 55.09930 | 10.23569 | 30325 ft | 445 kts | 51° |
| 2026-05-04 18:17 | 55.11793 | 10.27879 | 29758 ft | 444 kts | 51° |
| 2026-05-04 18:17 | 55.15450 | 10.36365 | 28750 ft | 435 kts | 51° |
| 2026-05-04 18:18 | 55.17278 | 10.40623 | 28225 ft | 431 kts | 51° |
| 2026-05-04 18:18 | 55.19047 | 10.44755 | 27748 ft | 427 kts | 51° |
| 2026-05-04 18:18 | 55.20840 | 10.48946 | 27289 ft | 423 kts | 51° |
| 2026-05-04 18:18 | 55.22593 | 10.53053 | 26802 ft | 419 kts | 51° |
| 2026-05-04 18:19 | 55.26045 | 10.61165 | 25853 ft | 412 kts | 52° |
| 2026-05-04 18:19 | 55.27510 | 10.65471 | 25393 ft | 410 kts | 63° |
| 2026-05-04 18:19 | 55.28520 | 10.70100 | 24943 ft | 407 kts | 72° |
| 2026-05-04 18:20 | 55.29323 | 10.74799 | 24475 ft | 405 kts | 72° |
| 2026-05-04 18:20 | 55.30124 | 10.79500 | 24007 ft | 403 kts | 72° |
| 2026-05-04 18:20 | 55.30927 | 10.84219 | 23581 ft | 399 kts | 72° |
| 2026-05-04 18:20 | 55.31716 | 10.88883 | 23442 ft | 387 kts | 72° |
| 2026-05-04 18:21 | 55.32457 | 10.93273 | 23287 ft | 372 kts | 72° |
| 2026-05-04 18:21 | 55.33216 | 10.97477 | 23146 ft | 351 kts | 64° |
| 2026-05-04 18:21 | 55.34507 | 11.01045 | 23008 ft | 335 kts | 43° |
| 2026-05-04 18:21 | 55.36263 | 11.03481 | 22796 ft | 320 kts | 22° |
| 2026-05-04 18:22 | 55.38302 | 11.04781 | 22522 ft | 308 kts | 7° |
| 2026-05-04 18:22 | 55.40387 | 11.05487 | 22198 ft | 303 kts | 3° |
| 2026-05-04 18:22 | 55.42467 | 11.06006 | 21882 ft | 300 kts | 1° |
| 2026-05-04 18:22 | 55.44531 | 11.06451 | 21779 ft | 299 kts | 2° |
| 2026-05-04 18:23 | 55.46565 | 11.07353 | 21694 ft | 306 kts | 18° |
| 2026-05-04 18:23 | 55.48416 | 11.09262 | 21614 ft | 313 kts | 36° |
| 2026-05-04 18:23 | 55.49853 | 11.12327 | 21543 ft | 342 kts | 61° |
| 2026-05-04 18:23 | 55.50592 | 11.16465 | 21468 ft | 366 kts | 84° |
| 2026-05-04 18:24 | 55.50479 | 11.20984 | 21093 ft | 371 kts | 105° |
| 2026-05-04 18:24 | 55.49488 | 11.25126 | 20634 ft | 365 kts | 128° |
| 2026-05-04 18:24 | 55.47757 | 11.28274 | 20258 ft | 355 kts | 150° |
| 2026-05-04 18:24 | 55.45590 | 11.30180 | 19901 ft | 347 kts | 163° |
| 2026-05-04 18:25 | 55.43333 | 11.31687 | 19565 ft | 346 kts | 165° |
| 2026-05-04 18:25 | 55.41082 | 11.33150 | 19217 ft | 345 kts | 165° |
| 2026-05-04 18:25 | 55.38834 | 11.34605 | 18872 ft | 343 kts | 165° |
| 2026-05-04 18:25 | 55.36601 | 11.36049 | 18588 ft | 342 kts | 165° |
| 2026-05-04 18:26 | 55.34371 | 11.37492 | 18323 ft | 340 kts | 165° |
| 2026-05-04 18:26 | 55.32219 | 11.39245 | 18040 ft | 346 kts | 150° |
| 2026-05-04 18:26 | 55.30460 | 11.42147 | 17740 ft | 352 kts | 129° |
| 2026-05-04 18:26 | 55.29387 | 11.46002 | 17454 ft | 355 kts | 106° |
| 2026-05-04 18:27 | 55.29176 | 11.50301 | 17186 ft | 356 kts | 83° |
| 2026-05-04 18:27 | 55.29859 | 11.54434 | 16927 ft | 352 kts | 60° |
| 2026-05-04 18:27 | 55.31303 | 11.57825 | 16664 ft | 345 kts | 38° |
| 2026-05-04 18:27 | 55.33278 | 11.60085 | 16401 ft | 335 kts | 17° |
| 2026-05-04 18:28 | 55.35495 | 11.61056 | 16148 ft | 326 kts | 2° |
| 2026-05-04 18:28 | 55.37738 | 11.61604 | 15892 ft | 326 kts | 2° |
| 2026-05-04 18:28 | 55.39979 | 11.62156 | 15639 ft | 325 kts | 2° |
| 2026-05-04 18:28 | 55.42196 | 11.62910 | 15375 ft | 326 kts | 12° |
| 2026-05-04 18:29 | 55.44300 | 11.64435 | 15135 ft | 330 kts | 26° |
| 2026-05-04 18:29 | 55.46096 | 11.67011 | 14891 ft | 338 kts | 46° |
| 2026-05-04 18:29 | 55.47539 | 11.70288 | 14575 ft | 339 kts | 50° |
| 2026-05-04 18:29 | 55.48951 | 11.73612 | 14224 ft | 338 kts | 50° |
| 2026-05-04 18:30 | 55.51741 | 11.80289 | 13460 ft | 338 kts | 51° |
| 2026-05-04 18:30 | 55.53133 | 11.83639 | 13033 ft | 338 kts | 51° |
| 2026-05-04 18:30 | 55.54521 | 11.86976 | 12606 ft | 336 kts | 51° |
| 2026-05-04 18:31 | 55.55888 | 11.90260 | 12181 ft | 328 kts | 51° |
| 2026-05-04 18:31 | 55.57232 | 11.93487 | 11783 ft | 324 kts | 51° |
| 2026-05-04 18:31 | 55.58562 | 11.96680 | 11373 ft | 321 kts | 51° |
| 2026-05-04 18:31 | 55.59801 | 11.99953 | 10972 ft | 320 kts | 62° |
| 2026-05-04 18:32 | 55.60676 | 12.03564 | 10566 ft | 319 kts | 65° |
| 2026-05-04 18:32 | 55.61531 | 12.07190 | 10144 ft | 319 kts | 65° |
| 2026-05-04 18:32 | 55.62387 | 12.10821 | 9731 ft | 320 kts | 65° |
| 2026-05-04 18:32 | 55.63243 | 12.14453 | 9276 ft | 319 kts | 65° |
| 2026-05-04 18:33 | 55.64072 | 12.17976 | 8828 ft | 310 kts | 65° |
| 2026-05-04 18:33 | 55.64903 | 12.21508 | 8384 ft | 304 kts | 65° |
| 2026-05-04 18:33 | 55.65709 | 12.24947 | 7940 ft | 301 kts | 66° |
| 2026-05-04 18:33 | 55.66496 | 12.28316 | 7525 ft | 299 kts | 65° |
| 2026-05-04 18:34 | 55.67296 | 12.31742 | 7091 ft | 296 kts | 66° |
| 2026-05-04 18:34 | 55.68074 | 12.35081 | 6673 ft | 289 kts | 66° |
| 2026-05-04 18:34 | 55.68815 | 12.38274 | 6254 ft | 279 kts | 65° |
| 2026-05-04 18:34 | 55.69543 | 12.41407 | 5813 ft | 270 kts | 65° |
| 2026-05-04 18:35 | 55.70249 | 12.44452 | 5384 ft | 265 kts | 66° |
| 2026-05-04 18:35 | 55.70948 | 12.47465 | 4958 ft | 262 kts | 65° |
| 2026-05-04 18:35 | 55.71638 | 12.50449 | 4514 ft | 260 kts | 65° |
| 2026-05-04 18:35 | 55.72396 | 12.53339 | 4083 ft | 259 kts | 61° |
| 2026-05-04 18:36 | 55.73199 | 12.56141 | 4001 ft | 253 kts | 60° |
| 2026-05-04 18:36 | 55.74002 | 12.58932 | 4007 ft | 254 kts | 60° |
| 2026-05-04 18:36 | 55.74808 | 12.61728 | 4007 ft | 254 kts | 60° |
| 2026-05-04 18:36 | 55.75615 | 12.64518 | 4007 ft | 255 kts | 60° |
| 2026-05-04 18:37 | 55.76424 | 12.67318 | 4010 ft | 255 kts | 60° |
| 2026-05-04 18:37 | 55.77234 | 12.70120 | 4007 ft | 255 kts | 60° |
| 2026-05-04 18:37 | 55.78040 | 12.72920 | 4009 ft | 255 kts | 60° |
| 2026-05-04 18:37 | 55.78846 | 12.75720 | 4008 ft | 255 kts | 60° |
| 2026-05-04 18:38 | 55.79626 | 12.78549 | 4005 ft | 255 kts | 68° |
| 2026-05-04 18:38 | 55.79794 | 12.81570 | 4004 ft | 241 kts | 101° |
| 2026-05-04 18:38 | 55.79156 | 12.84205 | 4009 ft | 229 kts | 127° |
| 2026-05-04 18:38 | 55.77985 | 12.85980 | 3787 ft | 221 kts | 158° |
| 2026-05-04 18:39 | 55.76515 | 12.86575 | 3517 ft | 215 kts | 185° |
| 2026-05-04 18:39 | 55.75095 | 12.86007 | 3298 ft | 207 kts | 211° |
| 2026-05-04 18:39 | 55.73950 | 12.84536 | 3056 ft | 203 kts | 225° |
| 2026-05-04 18:39 | 55.72890 | 12.82874 | 2793 ft | 204 kts | 225° |
| 2026-05-04 18:40 | 55.71818 | 12.81196 | 2494 ft | 206 kts | 225° |
| 2026-05-04 18:40 | 55.70741 | 12.79514 | 2219 ft | 207 kts | 225° |
| 2026-05-04 18:40 | 55.69662 | 12.77832 | 1931 ft | 203 kts | 225° |
| 2026-05-04 18:40 | 55.68641 | 12.76246 | 1673 ft | 187 kts | 225° |
| 2026-05-04 18:41 | 55.67703 | 12.74789 | 1445 ft | 172 kts | 225° |
| 2026-05-04 18:41 | 55.66832 | 12.73433 | 1198 ft | 159 kts | 225° |
| 2026-05-04 18:41 | 55.66052 | 12.72220 | 984 ft | 142 kts | 226° |
| 2026-05-04 18:41 | 55.65325 | 12.71083 | 784 ft | 137 kts | 225° |
| 2026-05-04 18:42 | 55.64612 | 12.69971 | 634 ft | 135 kts | 223° |
| 2026-05-04 18:42 | 55.63897 | 12.68875 | 409 ft | 136 kts | 225° |
| 2026-05-04 18:42 | 55.63186 | 12.67768 | 253 ft | 137 kts | 225° |
| 2026-05-04 18:42 | 55.62477 | 12.66657 | 49 ft | 136 kts | 225° |
| 2026-05-04 18:43 | 55.61831 | 12.65657 | 19 ft | 93 kts | 221° |
| 2026-05-04 18:43 | 55.61473 | 12.65102 | 17 ft | 50 kts | 222° |
| 2026-05-04 18:43 | 55.61292 | 12.64754 | 18 ft | 35 kts | 239° |
| 2026-05-04 18:43 | 55.61216 | 12.64422 | 18 ft | 20 kts | 254° |
| 2026-05-04 18:44 | 55.61184 | 12.64224 | 17 ft | 15 kts | 264° |
| 2026-05-04 18:44 | 55.61187 | 12.64172 | 17 ft | 12 kts | 284° |
| 2026-05-04 18:44 | 55.61209 | 12.64124 | 17 ft | 0 kts | 324° |
| 2026-05-04 18:45 | 55.61236 | 12.64105 | 17 ft | 12 kts | 347° |
| 2026-05-04 18:45 | 55.61362 | 12.64206 | 17 ft | 23 kts | 33° |
| 2026-05-04 18:45 | 55.61501 | 12.64366 | 19 ft | 22 kts | 32° |
| 2026-05-04 18:45 | 55.61626 | 12.64510 | 19 ft | 22 kts | 33° |
| 2026-05-04 18:46 | 55.61793 | 12.64704 | 17 ft | 22 kts | 33° |
| 2026-05-04 18:46 | 55.61880 | 12.64806 | 17 ft | 21 kts | 32° |
| 2026-05-04 18:46 | 55.61942 | 12.64876 | 17 ft | 6 kts | 33° |
| 2026-05-04 18:46 | 55.61969 | 12.64908 | 18 ft | 11 kts | 33° |
| 2026-05-04 18:47 | 55.62049 | 12.64998 | 19 ft | 13 kts | 32° |
| 2026-05-04 18:47 | 55.62118 | 12.65076 | 19 ft | 10 kts | 33° |
| 2026-05-04 18:47 | 55.62146 | 12.65108 | 19 ft | 3 kts | 33° |